createdAt,value
2018-03-24T00:01:35.772Z,78.82
2018-03-24T00:04:03.182Z,79.67
2018-03-24T00:06:30.564Z,80.09
2018-03-24T00:08:57.948Z,80.41
2018-03-24T00:11:25.349Z,80.39
2018-03-24T00:13:52.721Z,80.46
2018-03-24T00:16:20.104Z,80.86
2018-03-24T00:18:47.496Z,81.12
2018-03-24T00:21:14.872Z,81.25
2018-03-24T00:23:42.253Z,81.12
2018-03-24T00:26:09.648Z,81.18
2018-03-24T00:28:37.025Z,81.41
2018-03-24T00:31:04.411Z,81.62
2018-03-24T00:33:31.808Z,81.80
2018-03-24T00:35:59.185Z,82.39
2018-03-24T00:38:26.560Z,82.66
2018-03-24T00:40:53.950Z,83.29
2018-03-24T00:43:21.332Z,83.61
2018-03-24T00:45:48.709Z,83.64
2018-03-24T00:48:16.096Z,84.20
2018-03-24T00:50:43.618Z,84.07
2018-03-24T00:53:10.992Z,84.38
2018-03-24T00:55:38.384Z,85.30
2018-03-24T00:58:05.778Z,85.88
2018-03-24T01:00:33.156Z,86.20
2018-03-24T01:03:00.548Z,86.04
2018-03-24T01:05:27.936Z,86.17
2018-03-24T01:07:55.316Z,86.55
2018-03-24T01:10:22.709Z,86.27
2018-03-24T01:12:50.090Z,86.28
2018-03-24T01:15:17.465Z,86.84
2018-03-24T01:17:44.867Z,87.04
2018-03-24T01:20:12.241Z,86.91
2018-03-24T01:22:39.618Z,87.07
2018-03-24T01:25:07.004Z,87.13
2018-03-24T01:27:34.381Z,87.27
2018-03-24T01:30:01.762Z,87.53
2018-03-24T01:32:29.167Z,87.94
2018-03-24T01:34:56.553Z,87.69
2018-03-24T01:37:23.941Z,87.68
2018-03-24T01:39:51.332Z,88.16
2018-03-24T01:42:18.721Z,88.75
2018-03-24T01:44:46.109Z,89.33
2018-03-24T01:47:13.525Z,89.19
2018-03-24T01:49:40.910Z,89.26
2018-03-24T01:52:08.298Z,89.39
2018-03-24T01:54:35.713Z,89.27
2018-03-24T01:57:03.096Z,89.71
2018-03-24T01:59:30.492Z,89.70
2018-03-24T02:01:57.884Z,90.28
2018-03-24T02:04:25.268Z,90.47
2018-03-24T02:06:52.670Z,90.59
2018-03-24T02:09:20.057Z,90.29
2018-03-24T02:11:47.451Z,90.82
2018-03-24T02:14:14.848Z,91.47
2018-03-24T02:16:42.232Z,91.13
2018-03-24T02:19:09.620Z,91.72
2018-03-24T02:21:37.956Z,91.23
2018-03-24T02:24:05.340Z,91.72
2018-03-24T02:26:32.736Z,92.64
2018-03-24T02:29:00.135Z,92.60
2018-03-24T02:31:27.520Z,92.72
2018-03-24T02:33:54.920Z,92.88
2018-03-24T02:36:22.325Z,92.81
2018-03-24T02:38:49.716Z,93.39
2018-03-24T02:41:17.117Z,93.41
2018-03-24T02:43:44.524Z,94.06
2018-03-24T02:46:11.914Z,94.07
2018-03-24T02:48:39.305Z,93.97
2018-03-24T02:51:06.708Z,94.24
2018-03-24T02:53:34.097Z,93.96
2018-03-24T02:56:01.496Z,94.22
2018-03-24T02:58:28.890Z,94.11
2018-03-24T03:00:56.277Z,94.41
2018-03-24T03:03:23.660Z,94.53
2018-03-24T03:05:51.145Z,94.43
2018-03-24T03:08:18.533Z,94.56
2018-03-24T03:10:45.928Z,94.37
2018-03-24T03:13:13.329Z,94.19
2018-03-24T03:15:40.720Z,94.05
2018-03-24T03:18:08.137Z,93.79
2018-03-24T03:20:35.504Z,93.99
2018-03-24T03:23:02.892Z,94.70
2018-03-24T03:25:30.287Z,94.62
2018-03-24T03:27:57.713Z,94.74
2018-03-24T03:33:29.828Z,94.60
2018-03-24T03:35:57.243Z,94.62
2018-03-24T03:38:24.632Z,94.79
2018-03-24T03:40:52.013Z,94.83
2018-03-24T03:43:19.410Z,94.80
2018-03-24T03:45:46.793Z,94.55
2018-03-24T03:48:14.470Z,94.51
2018-03-24T03:50:41.852Z,94.28
2018-03-24T03:53:09.242Z,94.49
2018-03-24T03:55:36.644Z,93.71
2018-03-24T03:58:04.552Z,93.57
2018-03-24T04:00:31.949Z,93.45
2018-03-24T04:02:59.351Z,93.23
2018-03-24T04:05:26.737Z,93.44
2018-03-24T04:07:54.136Z,93.53
2018-03-24T04:10:21.529Z,93.53
2018-03-24T04:12:48.921Z,93.66
2018-03-24T04:15:16.312Z,93.46
2018-03-24T04:17:43.704Z,93.59
2018-03-24T04:20:11.092Z,93.60
2018-03-24T04:22:38.489Z,93.70
2018-03-24T04:25:05.884Z,93.60
2018-03-24T04:27:33.287Z,93.58
2018-03-24T04:30:00.676Z,93.68
2018-03-24T04:32:28.065Z,93.61
2018-03-24T04:34:55.464Z,93.79
2018-03-24T04:37:22.849Z,93.80
2018-03-24T04:39:50.266Z,93.86
2018-03-24T04:42:17.661Z,93.81
2018-03-24T04:44:45.037Z,93.87
2018-03-24T04:47:12.433Z,93.94
2018-03-24T04:49:39.817Z,94.22
2018-03-24T04:52:07.237Z,94.19
2018-03-24T04:54:34.641Z,94.06
2018-03-24T04:57:02.021Z,93.94
2018-03-24T04:59:29.416Z,93.94
2018-03-24T05:01:56.803Z,93.82
2018-03-24T05:04:24.196Z,93.61
2018-03-24T05:06:51.593Z,93.65
2018-03-24T05:09:18.993Z,93.37
2018-03-24T05:11:46.377Z,93.16
2018-03-24T05:14:13.774Z,93.01
2018-03-24T05:16:41.482Z,92.70
2018-03-24T05:19:08.883Z,92.71
2018-03-24T05:21:36.264Z,92.51
2018-03-24T05:24:03.656Z,92.31
2018-03-24T05:26:31.062Z,92.15
2018-03-24T05:28:58.456Z,91.95
2018-03-24T05:31:25.858Z,91.95
2018-03-24T05:33:53.247Z,91.83
2018-03-24T05:36:20.632Z,91.76
2018-03-24T05:38:48.017Z,91.60
2018-03-24T05:41:15.429Z,91.59
2018-03-24T05:43:42.821Z,91.54
2018-03-24T05:46:10.217Z,91.92
2018-03-24T05:48:37.676Z,92.03
2018-03-24T05:51:04.985Z,91.85
2018-03-24T05:53:32.372Z,91.89
2018-03-24T05:55:59.845Z,91.76
2018-03-24T05:58:27.224Z,91.57
2018-03-24T06:00:54.616Z,91.26
2018-03-24T06:03:22.020Z,91.10
2018-03-24T06:05:49.412Z,90.98
2018-03-24T06:08:16.788Z,90.86
2018-03-24T06:10:44.196Z,90.40
2018-03-24T06:13:11.570Z,90.22
2018-03-24T06:15:38.951Z,90.21
2018-03-24T06:18:06.328Z,90.19
2018-03-24T06:20:33.720Z,90.33
2018-03-24T06:23:01.108Z,90.33
2018-03-24T06:25:28.519Z,90.10
2018-03-24T06:27:55.900Z,90.08
2018-03-24T06:30:25.816Z,90.33
2018-03-24T06:32:53.229Z,90.00
2018-03-24T06:35:20.603Z,89.90
2018-03-24T06:37:47.993Z,90.09
2018-03-24T06:40:15.383Z,89.78
2018-03-24T06:42:42.765Z,89.69
2018-03-24T06:45:10.177Z,89.68
2018-03-24T06:47:37.560Z,89.32
2018-03-24T06:50:04.936Z,88.74
2018-03-24T06:52:33.049Z,88.17
2018-03-24T06:55:00.424Z,88.24
2018-03-24T06:57:27.821Z,87.70
2018-03-24T06:59:55.874Z,87.71
2018-03-24T07:02:23.236Z,87.31
2018-03-24T07:04:50.685Z,87.42
2018-03-24T07:07:18.068Z,86.82
2018-03-24T07:09:45.493Z,87.28
2018-03-24T07:12:13.244Z,87.19
2018-03-24T07:14:40.645Z,86.81
2018-03-24T07:17:08.057Z,86.60
2018-03-24T07:19:35.456Z,86.46
2018-03-24T07:22:02.848Z,85.94
2018-03-24T07:24:30.240Z,86.53
2018-03-24T07:26:57.645Z,86.05
2018-03-24T07:29:25.060Z,86.16
2018-03-24T07:31:52.457Z,85.57
2018-03-24T07:34:19.900Z,85.43
2018-03-24T07:36:47.298Z,85.41
2018-03-24T07:39:14.715Z,85.57
2018-03-24T07:41:42.111Z,84.78
2018-03-24T07:44:09.538Z,83.92
2018-03-24T07:46:36.929Z,83.68
2018-03-24T07:49:04.385Z,83.13
2018-03-24T07:51:31.812Z,83.38
2018-03-24T07:53:59.182Z,83.75
2018-03-24T07:56:26.564Z,83.64
2018-03-24T07:58:53.952Z,80.72
2018-03-24T08:01:21.346Z,81.51
2018-03-24T08:03:48.724Z,80.79
2018-03-24T08:06:16.136Z,79.76
2018-03-24T08:08:43.512Z,80.01
2018-03-24T08:11:10.901Z,78.40
2018-03-24T08:13:38.301Z,79.62
2018-03-24T08:16:05.713Z,78.07
2018-03-24T08:18:33.156Z,78.50
2018-03-24T08:21:00.525Z,77.58
2018-03-24T08:23:27.954Z,77.43
2018-03-24T08:25:55.329Z,77.62
2018-03-24T08:28:22.713Z,75.75
2018-03-24T08:30:50.121Z,75.19
2018-03-24T08:33:17.549Z,75.80
2018-03-24T08:35:45.004Z,73.50
2018-03-24T08:38:12.404Z,74.12
2018-03-24T08:40:39.814Z,72.58
2018-03-24T08:43:07.210Z,71.62
2018-03-24T08:45:34.600Z,71.43
2018-03-24T08:48:02.005Z,70.96
2018-03-24T08:50:29.378Z,70.52
2018-03-24T08:52:56.885Z,70.55
2018-03-24T08:55:24.243Z,69.66
2018-03-24T08:57:51.609Z,70.85
2018-03-24T09:00:19.028Z,71.06
2018-03-24T09:02:46.393Z,70.72
2018-03-24T09:05:13.779Z,70.15
2018-03-24T09:07:41.156Z,68.91
2018-03-24T09:10:08.541Z,68.50
2018-03-24T09:12:35.941Z,69.90
2018-03-24T09:15:03.386Z,67.66
2018-03-24T09:17:30.714Z,67.24
2018-03-24T09:19:58.096Z,66.58
2018-03-24T09:22:25.520Z,66.51
2018-03-24T09:24:52.915Z,65.79
2018-03-24T09:27:20.310Z,64.91
2018-03-24T09:29:47.693Z,65.19
2018-03-24T09:32:15.082Z,66.87
2018-03-24T09:34:42.473Z,64.62
2018-03-24T09:37:09.879Z,65.47
2018-03-24T09:39:37.273Z,64.24
2018-03-24T09:42:04.685Z,64.20
2018-03-24T09:44:32.093Z,62.26
2018-03-24T09:46:59.495Z,63.38
2018-03-24T09:49:26.961Z,60.41
2018-03-24T09:51:54.348Z,57.37
2018-03-24T09:54:21.736Z,56.25
2018-03-24T09:56:49.116Z,57.25
2018-03-24T09:59:16.542Z,58.21
2018-03-24T10:01:43.901Z,59.20
2018-03-24T10:04:11.285Z,57.96
2018-03-24T10:06:38.664Z,55.10
2018-03-24T10:09:06.057Z,52.82
2018-03-24T10:11:33.441Z,51.39
2018-03-24T10:14:00.841Z,53.43
2018-03-24T10:16:28.213Z,51.99
2018-03-24T10:18:55.596Z,49.88
2018-03-24T10:24:26.676Z,50.09
2018-03-24T10:26:54.065Z,51.37
2018-03-24T10:29:21.452Z,47.12
2018-03-24T10:31:48.854Z,44.23
2018-03-24T10:34:16.232Z,43.44
2018-03-24T10:36:43.619Z,45.35
2018-03-24T10:39:11.009Z,42.19
2018-03-24T10:41:38.400Z,42.74
2018-03-24T10:44:05.794Z,42.71
2018-03-24T10:46:33.180Z,43.12
2018-03-24T10:49:00.565Z,43.97
2018-03-24T10:51:27.957Z,43.07
2018-03-24T10:53:55.337Z,42.48
2018-03-24T10:56:22.732Z,42.91
2018-03-24T10:58:50.112Z,42.34
2018-03-24T11:01:25.026Z,42.22
2018-03-24T11:03:52.412Z,44.92
2018-03-24T11:06:19.799Z,43.89
2018-03-24T11:08:47.188Z,42.98
2018-03-24T11:11:14.595Z,42.76
2018-03-24T11:13:41.968Z,40.62
2018-03-24T11:16:09.353Z,41.93
2018-03-24T11:18:36.732Z,40.37
2018-03-24T11:21:04.127Z,42.67
2018-03-24T11:23:31.527Z,44.16
2018-03-24T11:25:58.900Z,46.03
2018-03-24T11:28:26.296Z,43.44
2018-03-24T11:30:53.676Z,41.67
2018-03-24T11:33:21.064Z,43.05
2018-03-24T11:35:48.462Z,41.65
2018-03-24T11:38:15.888Z,42.52
2018-03-24T11:40:43.273Z,40.88
2018-03-24T11:43:10.669Z,42.51
2018-03-24T11:45:38.044Z,43.67
2018-03-24T11:48:05.444Z,43.66
2018-03-24T11:50:32.838Z,42.20
2018-03-24T11:53:00.224Z,44.20
2018-03-24T11:55:27.604Z,42.31
2018-03-24T11:57:54.993Z,42.29
2018-03-24T12:00:22.392Z,43.76
2018-03-24T12:02:49.768Z,44.04
2018-03-24T12:05:17.161Z,45.21
2018-03-24T12:07:44.549Z,46.36
2018-03-24T12:10:11.933Z,45.93
2018-03-24T12:12:39.340Z,45.41
2018-03-24T12:15:06.725Z,45.05
2018-03-24T12:17:34.129Z,43.27
2018-03-24T12:20:01.561Z,43.38
2018-03-24T12:22:29.040Z,44.28
2018-03-24T12:24:56.428Z,44.28
2018-03-24T12:27:23.837Z,45.19
2018-03-24T12:29:51.232Z,42.35
2018-03-24T12:32:18.620Z,42.38
2018-03-24T12:34:46.012Z,41.50
2018-03-24T12:37:13.401Z,39.81
2018-03-24T12:39:40.837Z,40.43
2018-03-24T12:42:08.203Z,38.67
2018-03-24T12:44:35.593Z,37.35
2018-03-24T12:47:02.976Z,41.49
2018-03-24T12:49:30.376Z,38.53
2018-03-24T12:51:57.756Z,35.85
2018-03-24T12:54:25.146Z,38.17
2018-03-24T12:56:52.532Z,39.24
2018-03-24T12:59:19.932Z,39.60
2018-03-24T13:01:47.320Z,40.91
2018-03-24T13:04:14.705Z,40.82
2018-03-24T13:06:42.106Z,41.23
2018-03-24T13:09:09.495Z,42.79
2018-03-24T13:11:36.876Z,44.24
2018-03-24T13:14:04.265Z,42.02
2018-03-24T13:16:31.657Z,41.13
2018-03-24T13:18:59.048Z,40.80
2018-03-24T13:21:26.436Z,39.50
2018-03-24T13:23:53.829Z,39.27
2018-03-24T13:26:21.213Z,41.67
2018-03-24T13:28:48.617Z,41.50
2018-03-24T13:31:16.005Z,42.22
2018-03-24T13:33:43.389Z,43.63
2018-03-24T13:36:10.781Z,41.82
2018-03-24T13:38:38.164Z,43.12
2018-03-24T13:41:05.565Z,41.99
2018-03-24T13:43:32.954Z,41.13
2018-03-24T13:46:00.343Z,42.82
2018-03-24T13:48:27.721Z,44.02
2018-03-24T13:50:55.120Z,44.17
2018-03-24T13:53:22.501Z,42.83
2018-03-24T13:55:49.884Z,44.43
2018-03-24T13:58:17.273Z,44.53
2018-03-24T14:00:44.661Z,44.62
2018-03-24T14:03:12.052Z,44.11
2018-03-24T14:05:40.462Z,45.29
2018-03-24T14:08:07.848Z,42.72
2018-03-24T14:10:35.253Z,42.38
2018-03-24T14:13:02.644Z,44.88
2018-03-24T14:15:30.040Z,43.62
2018-03-24T14:17:57.416Z,44.61
2018-03-24T14:20:24.808Z,41.61
2018-03-24T14:22:52.233Z,42.05
2018-03-24T14:25:19.622Z,43.36
2018-03-24T14:27:47.004Z,42.76
2018-03-24T14:30:14.400Z,43.81
2018-03-24T14:32:41.785Z,42.94
2018-03-24T14:35:09.177Z,44.33
2018-03-24T14:37:36.568Z,44.69
2018-03-24T14:40:03.965Z,41.66
2018-03-24T14:42:31.356Z,42.95
2018-03-24T14:44:58.744Z,42.89
2018-03-24T14:47:26.137Z,42.99
2018-03-24T14:49:53.520Z,43.66
2018-03-24T14:52:20.924Z,43.62
2018-03-24T14:54:48.317Z,44.28
2018-03-24T14:57:15.730Z,43.32
2018-03-24T14:59:43.136Z,44.40
2018-03-24T15:02:10.512Z,43.98
2018-03-24T15:04:37.912Z,44.73
2018-03-24T15:07:05.300Z,44.80
2018-03-24T15:09:32.693Z,43.51
2018-03-24T15:12:00.093Z,43.31
2018-03-24T15:14:27.488Z,44.62
2018-03-24T15:16:54.878Z,46.20
2018-03-24T15:19:22.273Z,46.60
2018-03-24T15:21:49.660Z,47.93
2018-03-24T15:24:17.040Z,45.77
2018-03-24T15:26:44.432Z,46.17
2018-03-24T15:29:23.653Z,45.21
2018-03-24T15:32:02.892Z,46.25
2018-03-24T15:34:42.038Z,46.16
2018-03-24T15:37:09.432Z,48.23
2018-03-24T15:39:36.821Z,46.25
2018-03-24T15:42:04.217Z,47.03
2018-03-24T15:44:31.593Z,45.41
2018-03-24T15:46:59.008Z,46.33
2018-03-24T15:49:26.390Z,44.79
2018-03-24T15:51:53.775Z,46.36
2018-03-24T15:54:21.168Z,44.81
2018-03-24T15:56:48.544Z,44.62
2018-03-24T15:59:15.938Z,46.75
2018-03-24T16:01:43.325Z,44.85
2018-03-24T16:04:10.725Z,47.36
2018-03-24T16:06:38.112Z,45.98
2018-03-24T16:09:05.505Z,45.55
2018-03-24T16:11:32.893Z,44.32
2018-03-24T16:14:00.278Z,46.11
2018-03-24T16:16:27.668Z,45.46
2018-03-24T16:18:55.083Z,46.58
2018-03-24T16:21:22.521Z,46.66
2018-03-24T16:23:49.901Z,46.73
2018-03-24T16:26:17.296Z,46.17
2018-03-24T16:28:44.685Z,45.56
2018-03-24T16:31:12.072Z,46.42
2018-03-24T16:33:39.464Z,46.25
2018-03-24T16:36:06.864Z,46.87
2018-03-24T16:38:34.287Z,46.76
2018-03-24T16:41:01.661Z,46.42
2018-03-24T16:43:29.072Z,45.34
2018-03-24T16:45:56.448Z,47.42
2018-03-24T16:48:23.838Z,46.41
2018-03-24T16:50:51.226Z,47.01
2018-03-24T16:53:18.653Z,47.03
2018-03-24T16:55:46.040Z,64.74
2018-03-24T16:58:13.431Z,53.00
2018-03-24T17:00:40.825Z,49.72
2018-03-24T17:03:08.229Z,49.60
2018-03-24T17:05:35.624Z,46.94
2018-03-24T17:08:04.037Z,47.78
2018-03-24T17:10:31.442Z,48.61
2018-03-24T17:12:59.160Z,49.18
2018-03-24T17:15:26.537Z,49.51
2018-03-24T17:17:54.230Z,49.28
2018-03-24T17:20:21.625Z,50.76
2018-03-24T17:22:49.016Z,50.76
2018-03-24T17:25:16.400Z,49.89
2018-03-24T17:27:43.793Z,50.12
2018-03-24T17:30:11.214Z,50.21
2018-03-24T17:32:38.632Z,50.75
2018-03-24T17:35:06.061Z,51.29
2018-03-24T17:37:33.442Z,50.64
2018-03-24T17:40:00.822Z,51.51
2018-03-24T17:42:28.211Z,52.98
2018-03-24T17:44:55.592Z,52.40
2018-03-24T17:47:22.982Z,52.91
2018-03-24T17:49:50.392Z,53.25
2018-03-24T17:52:17.769Z,53.59
2018-03-24T17:54:45.184Z,53.68
2018-03-24T17:57:12.576Z,54.62
2018-03-24T17:59:39.984Z,54.95
2018-03-24T18:02:07.384Z,54.35
2018-03-24T18:04:34.817Z,54.64
2018-03-24T18:07:02.221Z,54.47
2018-03-24T18:09:29.633Z,55.18
2018-03-24T18:11:57.029Z,55.73
2018-03-24T18:14:24.428Z,56.69
2018-03-24T18:16:51.813Z,57.66
2018-03-24T18:19:19.197Z,57.54
2018-03-24T18:21:46.588Z,57.70
2018-03-24T18:24:13.963Z,58.19
2018-03-24T18:26:41.361Z,59.08
2018-03-24T18:29:08.736Z,59.67
2018-03-24T18:31:36.123Z,60.11
2018-03-24T18:34:03.505Z,60.36
2018-03-24T18:36:30.893Z,60.69
2018-03-24T18:38:58.281Z,61.07
2018-03-24T18:41:25.684Z,61.86
2018-03-24T18:43:53.621Z,62.10
2018-03-24T18:46:21.000Z,60.87
2018-03-24T18:48:48.383Z,60.78
2018-03-24T18:51:15.795Z,60.54
2018-03-24T18:53:43.169Z,60.89
2018-03-24T18:56:10.549Z,61.19
2018-03-24T18:58:37.981Z,61.42
2018-03-24T19:01:05.365Z,61.80
2018-03-24T19:03:32.774Z,62.28
2018-03-24T19:06:00.157Z,62.57
2018-03-24T19:08:27.529Z,62.81
2018-03-24T19:10:54.934Z,63.05
2018-03-24T19:13:22.317Z,63.25
2018-03-24T19:15:49.706Z,63.75
2018-03-24T19:18:17.098Z,63.94
2018-03-24T19:20:44.479Z,63.79
2018-03-24T19:23:11.866Z,64.16
2018-03-24T19:25:39.257Z,64.38
2018-03-24T19:28:06.911Z,64.49
2018-03-24T19:30:34.284Z,64.42
2018-03-24T19:33:01.678Z,64.58
2018-03-24T19:35:29.058Z,64.68
2018-03-24T19:37:56.432Z,64.58
2018-03-24T19:40:23.834Z,64.43
2018-03-24T19:42:51.226Z,64.71
2018-03-24T19:45:18.609Z,64.94
2018-03-24T19:47:45.992Z,64.91
2018-03-24T19:50:13.372Z,65.14
2018-03-24T19:52:40.764Z,65.29
2018-03-24T19:55:08.151Z,65.25
2018-03-24T19:57:35.550Z,65.25
2018-03-24T20:00:03.012Z,65.15
2018-03-24T20:02:30.409Z,65.37
2018-03-24T20:04:57.810Z,65.58
2018-03-24T20:07:25.191Z,64.61
2018-03-24T20:09:52.564Z,64.14
2018-03-24T20:12:20.021Z,63.59
2018-03-24T20:14:47.400Z,63.67
2018-03-24T20:17:14.909Z,63.96
2018-03-24T20:19:42.545Z,64.48
2018-03-24T20:22:09.945Z,64.48
2018-03-24T20:24:37.322Z,64.74
2018-03-24T20:27:04.722Z,64.66
2018-03-24T20:29:32.104Z,64.84
2018-03-24T20:31:59.553Z,65.36
2018-03-24T20:34:27.820Z,65.36
2018-03-24T20:36:55.202Z,64.94
2018-03-24T20:39:22.600Z,64.98
2018-03-24T20:41:49.989Z,65.07
2018-03-24T20:44:17.372Z,65.48
2018-03-24T20:46:44.763Z,65.63
2018-03-24T20:49:12.144Z,65.73
2018-03-24T20:51:39.536Z,65.90
2018-03-24T20:54:07.303Z,66.36
2018-03-24T20:56:34.617Z,66.39
2018-03-24T20:59:02.021Z,66.49
2018-03-24T21:01:29.424Z,66.78
2018-03-24T21:03:56.778Z,66.73
2018-03-24T21:06:24.173Z,66.87
2018-03-24T21:08:51.557Z,67.16
2018-03-24T21:11:18.936Z,67.22
2018-03-24T21:13:46.325Z,67.25
2018-03-24T21:16:13.701Z,67.17
2018-03-24T21:18:41.079Z,67.25
2018-03-24T21:21:08.479Z,67.21
2018-03-24T21:23:35.855Z,67.32
2018-03-24T21:26:03.577Z,66.96
2018-03-24T21:28:30.952Z,67.07
2018-03-24T21:30:58.333Z,67.19
2018-03-24T21:33:25.720Z,67.26
2018-03-24T21:35:53.101Z,67.52
2018-03-24T21:38:20.512Z,67.78
2018-03-24T21:40:47.888Z,68.02
2018-03-24T21:43:15.268Z,68.54
2018-03-24T21:45:42.656Z,68.44
2018-03-24T21:48:10.040Z,68.63
2018-03-24T21:50:37.444Z,68.69
2018-03-24T21:53:04.817Z,69.10
2018-03-24T21:55:32.196Z,69.21
2018-03-24T21:57:59.596Z,69.43
2018-03-24T22:00:26.981Z,69.55
2018-03-24T22:02:54.396Z,69.61
2018-03-24T22:05:21.777Z,69.74
2018-03-24T22:07:49.156Z,69.21
2018-03-24T22:10:16.545Z,68.83
2018-03-24T22:12:43.933Z,68.73
2018-03-24T22:15:11.318Z,68.42
2018-03-24T22:17:38.697Z,68.60
2018-03-24T22:20:06.082Z,68.38
2018-03-24T22:22:33.530Z,68.36
2018-03-24T22:25:00.892Z,68.31
2018-03-24T22:27:28.278Z,68.53
2018-03-24T22:29:55.657Z,68.93
2018-03-24T22:32:23.048Z,69.04
2018-03-24T22:34:50.452Z,69.49
2018-03-24T22:37:17.833Z,69.89
2018-03-24T22:39:45.307Z,70.44
2018-03-24T22:42:12.613Z,70.59
2018-03-24T22:44:40.006Z,70.78
2018-03-24T22:47:07.392Z,70.82
2018-03-24T22:49:34.769Z,71.18
2018-03-24T22:52:02.157Z,71.54
2018-03-24T22:54:29.549Z,71.86
2018-03-24T22:56:56.941Z,72.30
2018-03-24T22:59:24.334Z,73.25
2018-03-24T23:01:51.711Z,73.72
2018-03-24T23:04:19.088Z,74.18
2018-03-24T23:06:46.468Z,75.09
2018-03-24T23:09:13.860Z,75.37
2018-03-24T23:11:41.301Z,75.82
2018-03-24T23:14:08.621Z,76.37
2018-03-24T23:16:36.021Z,77.09
2018-03-24T23:19:03.393Z,77.61
2018-03-24T23:21:30.789Z,77.63
2018-03-24T23:23:58.169Z,77.88
2018-03-24T23:26:25.553Z,78.30
2018-03-24T23:28:52.958Z,78.48
2018-03-24T23:31:20.333Z,78.95
2018-03-24T23:33:47.736Z,79.68
2018-03-24T23:36:15.110Z,79.56
2018-03-24T23:38:42.488Z,79.34
2018-03-24T23:41:09.877Z,78.99
2018-03-24T23:43:37.256Z,78.32
2018-03-24T23:46:04.655Z,78.29
2018-03-24T23:48:32.029Z,78.10
2018-03-24T23:50:59.408Z,78.06
2018-03-24T23:53:26.795Z,77.90
2018-03-24T23:55:54.175Z,77.88
2018-03-24T23:58:21.566Z,77.70
